sensor_id;sensor_type;location;lat;lon;timestamp;P1;durP1;ratioP1;P2;durP2;ratioP2
46040;SDS011;31779;49.124;19.190;2022-11-13T00:01:51;60.78;;;42.15;;
46040;SDS011;31779;49.124;19.190;2022-11-13T00:04:37;58.53;;;41.67;;
46040;SDS011;31779;49.124;19.190;2022-11-13T00:07:24;61.58;;;39.35;;
46040;SDS011;31779;49.124;19.190;2022-11-13T00:10:10;62.00;;;42.80;;
46040;SDS011;31779;49.124;19.190;2022-11-13T00:12:56;72.95;;;51.13;;
46040;SDS011;31779;49.124;19.190;2022-11-13T00:15:42;68.80;;;50.33;;
46040;SDS011;31779;49.124;19.190;2022-11-13T00:18:28;68.30;;;55.20;;
46040;SDS011;31779;49.124;19.190;2022-11-13T00:21:17;85.65;;;69.70;;
46040;SDS011;31779;49.124;19.190;2022-11-13T00:24:05;100.72;;;83.50;;
46040;SDS011;31779;49.124;19.190;2022-11-13T00:26:52;177.68;;;122.78;;
46040;SDS011;31779;49.124;19.190;2022-11-13T00:29:38;208.38;;;137.10;;
46040;SDS011;31779;49.124;19.190;2022-11-13T00:32:24;148.02;;;109.85;;
46040;SDS011;31779;49.124;19.190;2022-11-13T00:35:11;105.45;;;90.70;;
46040;SDS011;31779;49.124;19.190;2022-11-13T00:37:57;131.23;;;102.05;;
46040;SDS011;31779;49.124;19.190;2022-11-13T00:40:49;98.78;;;82.97;;
46040;SDS011;31779;49.124;19.190;2022-11-13T00:43:36;105.88;;;88.28;;
46040;SDS011;31779;49.124;19.190;2022-11-13T00:46:23;106.03;;;84.63;;
46040;SDS011;31779;49.124;19.190;2022-11-13T00:49:09;91.70;;;76.38;;
46040;SDS011;31779;49.124;19.190;2022-11-13T00:51:55;88.60;;;73.40;;
46040;SDS011;31779;49.124;19.190;2022-11-13T00:54:41;82.18;;;68.68;;
46040;SDS011;31779;49.124;19.190;2022-11-13T00:57:27;87.82;;;70.63;;
46040;SDS011;31779;49.124;19.190;2022-11-13T01:00:14;81.80;;;68.93;;
46040;SDS011;31779;49.124;19.190;2022-11-13T01:03:00;72.70;;;62.67;;
46040;SDS011;31779;49.124;19.190;2022-11-13T01:05:47;69.50;;;59.92;;
46040;SDS011;31779;49.124;19.190;2022-11-13T01:08:33;72.90;;;60.67;;
46040;SDS011;31779;49.124;19.190;2022-11-13T01:11:20;68.07;;;55.95;;
46040;SDS011;31779;49.124;19.190;2022-11-13T01:14:09;81.97;;;62.55;;
46040;SDS011;31779;49.124;19.190;2022-11-13T01:16:55;71.10;;;59.15;;
46040;SDS011;31779;49.124;19.190;2022-11-13T01:19:42;74.15;;;60.35;;
46040;SDS011;31779;49.124;19.190;2022-11-13T01:22:28;68.65;;;57.30;;
46040;SDS011;31779;49.124;19.190;2022-11-13T01:25:14;75.90;;;62.92;;
46040;SDS011;31779;49.124;19.190;2022-11-13T01:28:01;84.55;;;64.93;;
46040;SDS011;31779;49.124;19.190;2022-11-13T01:30:47;71.55;;;58.15;;
46040;SDS011;31779;49.124;19.190;2022-11-13T01:33:34;74.65;;;55.00;;
46040;SDS011;31779;49.124;19.190;2022-11-13T01:36:25;70.03;;;51.22;;
46040;SDS011;31779;49.124;19.190;2022-11-13T01:39:13;78.30;;;54.40;;
46040;SDS011;31779;49.124;19.190;2022-11-13T01:41:59;86.50;;;57.50;;
46040;SDS011;31779;49.124;19.190;2022-11-13T01:44:56;72.70;;;50.47;;
46040;SDS011;31779;49.124;19.190;2022-11-13T01:47:46;86.13;;;55.42;;
46040;SDS011;31779;49.124;19.190;2022-11-13T01:50:32;84.63;;;53.47;;
46040;SDS011;31779;49.124;19.190;2022-11-13T01:53:19;79.78;;;51.95;;
46040;SDS011;31779;49.124;19.190;2022-11-13T01:56:06;70.50;;;52.58;;
46040;SDS011;31779;49.124;19.190;2022-11-13T01:58:54;77.25;;;52.65;;
46040;SDS011;31779;49.124;19.190;2022-11-13T02:01:48;65.65;;;47.60;;
46040;SDS011;31779;49.124;19.190;2022-11-13T02:04:35;59.42;;;43.28;;
46040;SDS011;31779;49.124;19.190;2022-11-13T02:07:21;56.28;;;43.95;;
46040;SDS011;31779;49.124;19.190;2022-11-13T02:10:08;74.45;;;50.42;;
46040;SDS011;31779;49.124;19.190;2022-11-13T02:12:54;68.90;;;49.33;;
46040;SDS011;31779;49.124;19.190;2022-11-13T02:15:41;66.30;;;46.33;;
46040;SDS011;31779;49.124;19.190;2022-11-13T02:18:28;76.82;;;50.33;;
46040;SDS011;31779;49.124;19.190;2022-11-13T02:27:20;99.37;;;53.60;;
46040;SDS011;31779;49.124;19.190;2022-11-13T02:30:19;241.65;;;55.80;;
46040;SDS011;31779;49.124;19.190;2022-11-13T02:33:46;83.50;;;37.63;;
46040;SDS011;31779;49.124;19.190;2022-11-13T02:36:25;193.88;;;53.17;;
46040;SDS011;31779;49.124;19.190;2022-11-13T02:39:13;68.63;;;44.97;;
46040;SDS011;31779;49.124;19.190;2022-11-13T02:41:59;81.18;;;46.05;;
46040;SDS011;31779;49.124;19.190;2022-11-13T02:44:45;77.35;;;47.83;;
46040;SDS011;31779;49.124;19.190;2022-11-13T02:47:32;71.38;;;45.45;;
46040;SDS011;31779;49.124;19.190;2022-11-13T02:50:18;66.93;;;44.63;;
46040;SDS011;31779;49.124;19.190;2022-11-13T02:53:05;60.05;;;39.00;;
46040;SDS011;31779;49.124;19.190;2022-11-13T02:55:52;58.65;;;35.05;;
46040;SDS011;31779;49.124;19.190;2022-11-13T02:58:38;53.55;;;37.20;;
46040;SDS011;31779;49.124;19.190;2022-11-13T03:01:24;56.38;;;34.35;;
46040;SDS011;31779;49.124;19.190;2022-11-13T03:04:11;51.05;;;34.38;;
46040;SDS011;31779;49.124;19.190;2022-11-13T03:06:57;58.67;;;37.33;;
46040;SDS011;31779;49.124;19.190;2022-11-13T03:09:44;56.72;;;35.15;;
46040;SDS011;31779;49.124;19.190;2022-11-13T03:12:31;54.60;;;34.58;;
46040;SDS011;31779;49.124;19.190;2022-11-13T03:15:18;50.42;;;37.20;;
46040;SDS011;31779;49.124;19.190;2022-11-13T03:18:05;62.33;;;38.38;;
46040;SDS011;31779;49.124;19.190;2022-11-13T03:20:52;43.60;;;32.60;;
46040;SDS011;31779;49.124;19.190;2022-11-13T03:23:39;42.13;;;30.20;;
46040;SDS011;31779;49.124;19.190;2022-11-13T03:26:26;51.58;;;32.85;;
46040;SDS011;31779;49.124;19.190;2022-11-13T03:29:12;71.50;;;43.95;;
46040;SDS011;31779;49.124;19.190;2022-11-13T03:32:00;86.53;;;59.97;;
46040;SDS011;31779;49.124;19.190;2022-11-13T03:34:47;127.53;;;82.32;;
46040;SDS011;31779;49.124;19.190;2022-11-13T03:37:33;114.60;;;79.15;;
46040;SDS011;31779;49.124;19.190;2022-11-13T03:40:20;100.90;;;67.40;;
46040;SDS011;31779;49.124;19.190;2022-11-13T03:43:05;101.47;;;64.47;;
46040;SDS011;31779;49.124;19.190;2022-11-13T03:45:52;88.70;;;56.40;;
46040;SDS011;31779;49.124;19.190;2022-11-13T03:48:38;86.30;;;53.63;;
46040;SDS011;31779;49.124;19.190;2022-11-13T03:51:24;77.82;;;51.47;;
46040;SDS011;31779;49.124;19.190;2022-11-13T03:54:11;73.38;;;46.92;;
46040;SDS011;31779;49.124;19.190;2022-11-13T03:56:57;63.35;;;43.33;;
46040;SDS011;31779;49.124;19.190;2022-11-13T03:59:43;61.58;;;42.30;;
46040;SDS011;31779;49.124;19.190;2022-11-13T04:02:30;65.93;;;46.40;;
46040;SDS011;31779;49.124;19.190;2022-11-13T04:05:15;73.60;;;50.50;;
46040;SDS011;31779;49.124;19.190;2022-11-13T04:08:07;88.50;;;51.97;;
46040;SDS011;31779;49.124;19.190;2022-11-13T04:10:54;80.05;;;50.22;;
46040;SDS011;31779;49.124;19.190;2022-11-13T04:13:49;80.85;;;52.03;;
46040;SDS011;31779;49.124;19.190;2022-11-13T04:16:35;74.07;;;47.53;;
46040;SDS011;31779;49.124;19.190;2022-11-13T04:19:22;63.08;;;42.10;;
46040;SDS011;31779;49.124;19.190;2022-11-13T04:22:08;66.40;;;42.10;;
46040;SDS011;31779;49.124;19.190;2022-11-13T04:24:54;65.40;;;40.33;;
46040;SDS011;31779;49.124;19.190;2022-11-13T04:27:40;62.60;;;40.85;;
46040;SDS011;31779;49.124;19.190;2022-11-13T04:30:27;64.93;;;43.50;;
46040;SDS011;31779;49.124;19.190;2022-11-13T04:33:14;57.13;;;40.10;;
46040;SDS011;31779;49.124;19.190;2022-11-13T04:36:00;59.42;;;41.95;;
46040;SDS011;31779;49.124;19.190;2022-11-13T04:38:46;52.63;;;38.00;;
46040;SDS011;31779;49.124;19.190;2022-11-13T04:41:32;55.42;;;40.25;;
46040;SDS011;31779;49.124;19.190;2022-11-13T04:44:40;212.55;;;61.97;;
46040;SDS011;31779;49.124;19.190;2022-11-13T04:47:26;65.90;;;41.03;;
46040;SDS011;31779;49.124;19.190;2022-11-13T04:50:12;60.17;;;40.88;;
46040;SDS011;31779;49.124;19.190;2022-11-13T04:53:00;61.53;;;39.13;;
46040;SDS011;31779;49.124;19.190;2022-11-13T04:55:46;50.22;;;35.90;;
46040;SDS011;31779;49.124;19.190;2022-11-13T04:58:32;57.20;;;38.55;;
46040;SDS011;31779;49.124;19.190;2022-11-13T05:01:18;66.35;;;43.42;;
46040;SDS011;31779;49.124;19.190;2022-11-13T05:04:04;66.38;;;39.42;;
46040;SDS011;31779;49.124;19.190;2022-11-13T05:06:51;60.33;;;36.47;;
46040;SDS011;31779;49.124;19.190;2022-11-13T05:09:37;63.38;;;39.90;;
46040;SDS011;31779;49.124;19.190;2022-11-13T05:12:23;79.38;;;43.70;;
46040;SDS011;31779;49.124;19.190;2022-11-13T05:15:09;102.38;;;40.50;;
46040;SDS011;31779;49.124;19.190;2022-11-13T05:17:56;127.35;;;47.15;;
46040;SDS011;31779;49.124;19.190;2022-11-13T05:20:42;72.85;;;39.47;;
46040;SDS011;31779;49.124;19.190;2022-11-13T05:23:28;60.28;;;33.75;;
46040;SDS011;31779;49.124;19.190;2022-11-13T05:26:15;61.15;;;34.10;;
46040;SDS011;31779;49.124;19.190;2022-11-13T05:29:02;83.00;;;39.22;;
46040;SDS011;31779;49.124;19.190;2022-11-13T05:31:48;49.05;;;32.75;;
46040;SDS011;31779;49.124;19.190;2022-11-13T05:34:34;53.88;;;36.38;;
46040;SDS011;31779;49.124;19.190;2022-11-13T05:37:21;41.95;;;30.75;;
46040;SDS011;31779;49.124;19.190;2022-11-13T05:40:07;49.60;;;31.30;;
46040;SDS011;31779;49.124;19.190;2022-11-13T05:42:54;43.47;;;29.33;;
46040;SDS011;31779;49.124;19.190;2022-11-13T05:45:41;47.42;;;30.98;;
46040;SDS011;31779;49.124;19.190;2022-11-13T05:48:27;44.03;;;29.40;;
46040;SDS011;31779;49.124;19.190;2022-11-13T05:51:16;54.40;;;33.45;;
46040;SDS011;31779;49.124;19.190;2022-11-13T05:54:03;64.88;;;32.75;;
46040;SDS011;31779;49.124;19.190;2022-11-13T05:56:50;72.88;;;35.55;;
46040;SDS011;31779;49.124;19.190;2022-11-13T05:59:37;63.10;;;32.13;;
46040;SDS011;31779;49.124;19.190;2022-11-13T06:02:23;58.22;;;33.35;;
46040;SDS011;31779;49.124;19.190;2022-11-13T06:05:10;44.40;;;29.60;;
46040;SDS011;31779;49.124;19.190;2022-11-13T06:07:57;53.72;;;32.55;;
46040;SDS011;31779;49.124;19.190;2022-11-13T06:10:43;48.38;;;31.42;;
46040;SDS011;31779;49.124;19.190;2022-11-13T06:13:29;45.13;;;31.52;;
46040;SDS011;31779;49.124;19.190;2022-11-13T06:16:17;42.38;;;27.40;;
46040;SDS011;31779;49.124;19.190;2022-11-13T06:19:09;50.60;;;30.85;;
46040;SDS011;31779;49.124;19.190;2022-11-13T06:21:55;50.80;;;33.35;;
46040;SDS011;31779;49.124;19.190;2022-11-13T06:24:42;53.38;;;32.75;;
46040;SDS011;31779;49.124;19.190;2022-11-13T06:27:28;57.10;;;37.20;;
46040;SDS011;31779;49.124;19.190;2022-11-13T06:30:15;59.35;;;38.15;;
46040;SDS011;31779;49.124;19.190;2022-11-13T06:33:01;58.95;;;30.95;;
46040;SDS011;31779;49.124;19.190;2022-11-13T06:35:47;64.63;;;31.13;;
46040;SDS011;31779;49.124;19.190;2022-11-13T06:38:35;57.15;;;33.60;;
46040;SDS011;31779;49.124;19.190;2022-11-13T06:41:23;51.00;;;32.15;;
46040;SDS011;31779;49.124;19.190;2022-11-13T06:44:11;49.65;;;31.80;;
46040;SDS011;31779;49.124;19.190;2022-11-13T06:46:57;41.83;;;29.48;;
46040;SDS011;31779;49.124;19.190;2022-11-13T06:49:43;53.50;;;33.20;;
46040;SDS011;31779;49.124;19.190;2022-11-13T06:52:30;44.00;;;31.80;;
46040;SDS011;31779;49.124;19.190;2022-11-13T06:55:16;43.22;;;30.42;;
46040;SDS011;31779;49.124;19.190;2022-11-13T06:58:02;45.85;;;30.00;;
46040;SDS011;31779;49.124;19.190;2022-11-13T07:00:48;37.58;;;28.50;;
46040;SDS011;31779;49.124;19.190;2022-11-13T07:03:35;44.83;;;29.38;;
46040;SDS011;31779;49.124;19.190;2022-11-13T07:06:23;42.47;;;30.10;;
46040;SDS011;31779;49.124;19.190;2022-11-13T07:09:10;41.80;;;28.05;;
46040;SDS011;31779;49.124;19.190;2022-11-13T07:11:56;86.93;;;42.33;;
46040;SDS011;31779;49.124;19.190;2022-11-13T07:14:42;92.40;;;41.80;;
46040;SDS011;31779;49.124;19.190;2022-11-13T07:17:28;71.32;;;33.17;;
46040;SDS011;31779;49.124;19.190;2022-11-13T07:20:15;47.72;;;30.88;;
46040;SDS011;31779;49.124;19.190;2022-11-13T07:23:02;43.67;;;29.10;;
46040;SDS011;31779;49.124;19.190;2022-11-13T07:25:51;56.25;;;32.95;;
46040;SDS011;31779;49.124;19.190;2022-11-13T07:28:39;55.65;;;31.13;;
46040;SDS011;31779;49.124;19.190;2022-11-13T07:31:25;45.00;;;27.88;;
46040;SDS011;31779;49.124;19.190;2022-11-13T07:34:12;45.65;;;29.50;;
46040;SDS011;31779;49.124;19.190;2022-11-13T07:36:59;50.03;;;29.65;;
46040;SDS011;31779;49.124;19.190;2022-11-13T07:39:46;47.80;;;29.80;;
46040;SDS011;31779;49.124;19.190;2022-11-13T07:42:33;38.47;;;26.23;;
46040;SDS011;31779;49.124;19.190;2022-11-13T07:45:19;44.08;;;29.42;;
46040;SDS011;31779;49.124;19.190;2022-11-13T07:48:05;41.22;;;26.27;;
46040;SDS011;31779;49.124;19.190;2022-11-13T07:50:52;41.78;;;29.25;;
46040;SDS011;31779;49.124;19.190;2022-11-13T07:53:38;40.47;;;28.40;;
46040;SDS011;31779;49.124;19.190;2022-11-13T07:56:24;45.70;;;32.58;;
46040;SDS011;31779;49.124;19.190;2022-11-13T07:59:11;37.70;;;25.80;;
46040;SDS011;31779;49.124;19.190;2022-11-13T08:01:58;46.58;;;31.60;;
46040;SDS011;31779;49.124;19.190;2022-11-13T08:04:45;33.97;;;27.00;;
46040;SDS011;31779;49.124;19.190;2022-11-13T08:07:31;38.03;;;30.15;;
46040;SDS011;31779;49.124;19.190;2022-11-13T08:10:18;34.05;;;27.20;;
46040;SDS011;31779;49.124;19.190;2022-11-13T08:13:06;36.53;;;24.77;;
46040;SDS011;31779;49.124;19.190;2022-11-13T08:15:57;48.03;;;38.78;;
46040;SDS011;31779;49.124;19.190;2022-11-13T08:18:45;35.78;;;26.27;;
46040;SDS011;31779;49.124;19.190;2022-11-13T08:21:33;34.47;;;26.52;;
46040;SDS011;31779;49.124;19.190;2022-11-13T08:24:20;28.55;;;23.83;;
46040;SDS011;31779;49.124;19.190;2022-11-13T08:27:07;29.95;;;23.13;;
46040;SDS011;31779;49.124;19.190;2022-11-13T08:29:53;38.50;;;28.55;;
46040;SDS011;31779;49.124;19.190;2022-11-13T08:32:40;27.95;;;22.88;;
46040;SDS011;31779;49.124;19.190;2022-11-13T08:35:26;33.50;;;23.95;;
46040;SDS011;31779;49.124;19.190;2022-11-13T08:38:14;32.45;;;24.55;;
46040;SDS011;31779;49.124;19.190;2022-11-13T08:41:01;37.90;;;31.20;;
46040;SDS011;31779;49.124;19.190;2022-11-13T08:43:53;34.17;;;24.90;;
46040;SDS011;31779;49.124;19.190;2022-11-13T08:46:39;35.05;;;28.20;;
46040;SDS011;31779;49.124;19.190;2022-11-13T08:49:25;33.25;;;24.80;;
46040;SDS011;31779;49.124;19.190;2022-11-13T08:52:14;34.97;;;27.38;;
46040;SDS011;31779;49.124;19.190;2022-11-13T08:57:51;32.00;;;28.48;;
46040;SDS011;31779;49.124;19.190;2022-11-13T09:00:37;30.42;;;24.90;;
46040;SDS011;31779;49.124;19.190;2022-11-13T09:03:24;41.45;;;28.77;;
46040;SDS011;31779;49.124;19.190;2022-11-13T09:06:11;34.33;;;27.25;;
46040;SDS011;31779;49.124;19.190;2022-11-13T09:08:57;31.35;;;28.05;;
46040;SDS011;31779;49.124;19.190;2022-11-13T09:11:44;105.22;;;64.15;;
46040;SDS011;31779;49.124;19.190;2022-11-13T09:14:31;56.10;;;36.53;;
46040;SDS011;31779;49.124;19.190;2022-11-13T09:17:17;38.72;;;29.52;;
46040;SDS011;31779;49.124;19.190;2022-11-13T09:20:04;42.05;;;31.50;;
46040;SDS011;31779;49.124;19.190;2022-11-13T09:23:02;40.65;;;30.88;;
46040;SDS011;31779;49.124;19.190;2022-11-13T09:25:52;39.70;;;31.63;;
46040;SDS011;31779;49.124;19.190;2022-11-13T09:28:38;111.45;;;72.03;;
46040;SDS011;31779;49.124;19.190;2022-11-13T09:31:26;67.65;;;48.10;;
46040;SDS011;31779;49.124;19.190;2022-11-13T09:34:12;38.70;;;34.97;;
46040;SDS011;31779;49.124;19.190;2022-11-13T09:36:58;47.35;;;39.25;;
46040;SDS011;31779;49.124;19.190;2022-11-13T09:39:45;71.47;;;55.25;;
46040;SDS011;31779;49.124;19.190;2022-11-13T09:42:32;42.05;;;34.78;;
46040;SDS011;31779;49.124;19.190;2022-11-13T09:45:21;24.75;;;22.40;;
46040;SDS011;31779;49.124;19.190;2022-11-13T09:51:25;26.92;;;24.27;;
46040;SDS011;31779;49.124;19.190;2022-11-13T09:54:14;22.83;;;20.77;;
46040;SDS011;31779;49.124;19.190;2022-11-13T10:00:11;23.83;;;21.93;;
46040;SDS011;31779;49.124;19.190;2022-11-13T10:10:16;27.45;;;24.75;;
46040;SDS011;31779;49.124;19.190;2022-11-13T10:12:36;24.40;;;22.00;;
46040;SDS011;31779;49.124;19.190;2022-11-13T10:15:22;21.92;;;19.73;;
46040;SDS011;31779;49.124;19.190;2022-11-13T10:18:11;20.83;;;19.02;;
46040;SDS011;31779;49.124;19.190;2022-11-13T10:24:13;21.77;;;19.80;;
46040;SDS011;31779;49.124;19.190;2022-11-13T10:27:04;20.38;;;18.77;;
46040;SDS011;31779;49.124;19.190;2022-11-13T10:29:57;27.80;;;25.05;;
46040;SDS011;31779;49.124;19.190;2022-11-13T10:32:43;29.08;;;26.02;;
46040;SDS011;31779;49.124;19.190;2022-11-13T10:38:24;22.33;;;20.13;;
46040;SDS011;31779;49.124;19.190;2022-11-13T10:41:20;20.30;;;18.52;;
46040;SDS011;31779;49.124;19.190;2022-11-13T10:44:17;26.33;;;23.70;;
46040;SDS011;31779;49.124;19.190;2022-11-13T10:47:16;23.17;;;21.08;;
46040;SDS011;31779;49.124;19.190;2022-11-13T10:50:25;25.55;;;23.17;;
46040;SDS011;31779;49.124;19.190;2022-11-13T10:53:14;25.65;;;23.17;;
46040;SDS011;31779;49.124;19.190;2022-11-13T10:56:10;24.33;;;21.83;;
46040;SDS011;31779;49.124;19.190;2022-11-13T10:59:17;29.02;;;25.75;;
46040;SDS011;31779;49.124;19.190;2022-11-13T11:02:24;33.50;;;29.88;;
46040;SDS011;31779;49.124;19.190;2022-11-13T11:05:16;33.50;;;30.00;;
46040;SDS011;31779;49.124;19.190;2022-11-13T11:08:07;34.88;;;26.65;;
46040;SDS011;31779;49.124;19.190;2022-11-13T11:10:57;27.38;;;24.02;;
46040;SDS011;31779;49.124;19.190;2022-11-13T11:14:19;30.20;;;26.17;;
46040;SDS011;31779;49.124;19.190;2022-11-13T11:17:07;29.02;;;25.58;;
46040;SDS011;31779;49.124;19.190;2022-11-13T11:20:00;27.40;;;24.02;;
46040;SDS011;31779;49.124;19.190;2022-11-13T11:23:14;29.23;;;23.42;;
46040;SDS011;31779;49.124;19.190;2022-11-13T11:26:18;26.23;;;21.38;;
46040;SDS011;31779;49.124;19.190;2022-11-13T11:32:36;22.98;;;20.48;;
46040;SDS011;31779;49.124;19.190;2022-11-13T11:38:59;20.02;;;16.80;;
46040;SDS011;31779;49.124;19.190;2022-11-13T11:42:19;25.95;;;20.08;;
46040;SDS011;31779;49.124;19.190;2022-11-13T11:48:31;18.70;;;16.80;;
46040;SDS011;31779;49.124;19.190;2022-11-13T11:57:31;16.17;;;14.32;;
46040;SDS011;31779;49.124;19.190;2022-11-13T12:00:27;17.48;;;13.70;;
46040;SDS011;31779;49.124;19.190;2022-11-13T12:15:03;13.50;;;11.98;;
46040;SDS011;31779;49.124;19.190;2022-11-13T12:18:14;14.70;;;13.30;;
46040;SDS011;31779;49.124;19.190;2022-11-13T12:30:55;12.35;;;11.27;;
46040;SDS011;31779;49.124;19.190;2022-11-13T12:34:00;12.45;;;11.35;;
46040;SDS011;31779;49.124;19.190;2022-11-13T12:36:48;14.05;;;12.88;;
46040;SDS011;31779;49.124;19.190;2022-11-13T12:39:40;16.42;;;15.07;;
46040;SDS011;31779;49.124;19.190;2022-11-13T12:45:58;15.90;;;14.40;;
46040;SDS011;31779;49.124;19.190;2022-11-13T12:48:51;12.93;;;11.68;;
46040;SDS011;31779;49.124;19.190;2022-11-13T12:51:37;20.17;;;14.10;;
46040;SDS011;31779;49.124;19.190;2022-11-13T12:57:22;13.43;;;12.43;;
46040;SDS011;31779;49.124;19.190;2022-11-13T13:00:25;14.48;;;13.13;;
46040;SDS011;31779;49.124;19.190;2022-11-13T13:15:07;16.35;;;14.98;;
46040;SDS011;31779;49.124;19.190;2022-11-13T13:21:12;22.88;;;21.48;;
46040;SDS011;31779;49.124;19.190;2022-11-13T13:24:08;24.40;;;22.67;;
46040;SDS011;31779;49.124;19.190;2022-11-13T13:27:31;19.38;;;18.00;;
46040;SDS011;31779;49.124;19.190;2022-11-13T13:30:23;19.45;;;18.25;;
46040;SDS011;31779;49.124;19.190;2022-11-13T13:36:33;21.65;;;19.70;;
46040;SDS011;31779;49.124;19.190;2022-11-13T13:39:43;19.58;;;18.02;;
46040;SDS011;31779;49.124;19.190;2022-11-13T13:48:48;12.70;;;11.40;;
46040;SDS011;31779;49.124;19.190;2022-11-13T13:51:42;12.68;;;11.00;;
46040;SDS011;31779;49.124;19.190;2022-11-13T13:54:31;16.88;;;12.90;;
46040;SDS011;31779;49.124;19.190;2022-11-13T13:57:18;19.15;;;12.75;;
46040;SDS011;31779;49.124;19.190;2022-11-13T14:00:09;13.45;;;11.60;;
46040;SDS011;31779;49.124;19.190;2022-11-13T14:03:01;17.58;;;14.82;;
46040;SDS011;31779;49.124;19.190;2022-11-13T14:05:49;18.08;;;13.65;;
46040;SDS011;31779;49.124;19.190;2022-11-13T14:08:36;14.23;;;11.35;;
46040;SDS011;31779;49.124;19.190;2022-11-13T14:11:23;16.45;;;13.02;;
46040;SDS011;31779;49.124;19.190;2022-11-13T14:14:19;14.70;;;12.88;;
46040;SDS011;31779;49.124;19.190;2022-11-13T14:17:08;15.02;;;12.02;;
46040;SDS011;31779;49.124;19.190;2022-11-13T14:19:56;14.50;;;11.75;;
46040;SDS011;31779;49.124;19.190;2022-11-13T14:22:47;17.90;;;12.63;;
46040;SDS011;31779;49.124;19.190;2022-11-13T14:25:41;13.82;;;12.43;;
46040;SDS011;31779;49.124;19.190;2022-11-13T14:28:33;11.77;;;10.50;;
46040;SDS011;31779;49.124;19.190;2022-11-13T14:31:30;15.32;;;11.43;;
46040;SDS011;31779;49.124;19.190;2022-11-13T14:34:20;12.52;;;11.27;;
46040;SDS011;31779;49.124;19.190;2022-11-13T14:40:18;15.85;;;12.38;;
46040;SDS011;31779;49.124;19.190;2022-11-13T14:43:12;13.45;;;11.98;;
46040;SDS011;31779;49.124;19.190;2022-11-13T14:46:04;10.98;;;9.80;;
46040;SDS011;31779;49.124;19.190;2022-11-13T14:49:24;19.05;;;15.45;;
46040;SDS011;31779;49.124;19.190;2022-11-13T14:52:26;13.35;;;11.48;;
46040;SDS011;31779;49.124;19.190;2022-11-13T14:55:24;21.88;;;16.80;;
46040;SDS011;31779;49.124;19.190;2022-11-13T14:58:24;16.23;;;14.63;;
46040;SDS011;31779;49.124;19.190;2022-11-13T15:04:02;45.45;;;32.33;;
46040;SDS011;31779;49.124;19.190;2022-11-13T15:06:49;28.85;;;21.65;;
46040;SDS011;31779;49.124;19.190;2022-11-13T15:09:40;23.08;;;17.75;;
46040;SDS011;31779;49.124;19.190;2022-11-13T15:12:26;23.30;;;18.38;;
46040;SDS011;31779;49.124;19.190;2022-11-13T15:15:14;14.57;;;11.75;;
46040;SDS011;31779;49.124;19.190;2022-11-13T15:18:08;10.25;;;9.25;;
46040;SDS011;31779;49.124;19.190;2022-11-13T15:21:01;11.63;;;10.43;;
46040;SDS011;31779;49.124;19.190;2022-11-13T15:23:48;21.05;;;17.02;;
46040;SDS011;31779;49.124;19.190;2022-11-13T15:26:34;40.45;;;28.10;;
46040;SDS011;31779;49.124;19.190;2022-11-13T15:29:21;30.38;;;22.55;;
46040;SDS011;31779;49.124;19.190;2022-11-13T15:32:08;35.22;;;29.65;;
46040;SDS011;31779;49.124;19.190;2022-11-13T15:34:56;49.05;;;36.28;;
46040;SDS011;31779;49.124;19.190;2022-11-13T15:37:43;73.80;;;57.65;;
46040;SDS011;31779;49.124;19.190;2022-11-13T15:40:30;46.03;;;34.67;;
46040;SDS011;31779;49.124;19.190;2022-11-13T15:43:18;28.52;;;20.85;;
46040;SDS011;31779;49.124;19.190;2022-11-13T15:46:10;38.08;;;29.42;;
46040;SDS011;31779;49.124;19.190;2022-11-13T15:49:02;58.83;;;46.13;;
46040;SDS011;31779;49.124;19.190;2022-11-13T15:51:49;59.10;;;46.55;;
46040;SDS011;31779;49.124;19.190;2022-11-13T15:54:36;64.85;;;48.13;;
46040;SDS011;31779;49.124;19.190;2022-11-13T15:57:24;56.55;;;45.03;;
46040;SDS011;31779;49.124;19.190;2022-11-13T16:00:13;61.20;;;45.88;;
46040;SDS011;31779;49.124;19.190;2022-11-13T16:03:02;45.03;;;33.73;;
46040;SDS011;31779;49.124;19.190;2022-11-13T16:05:59;62.95;;;48.95;;
46040;SDS011;31779;49.124;19.190;2022-11-13T16:08:46;92.60;;;53.90;;
46040;SDS011;31779;49.124;19.190;2022-11-13T16:11:33;63.50;;;50.05;;
46040;SDS011;31779;49.124;19.190;2022-11-13T16:14:20;62.75;;;44.67;;
46040;SDS011;31779;49.124;19.190;2022-11-13T16:17:16;68.75;;;53.65;;
46040;SDS011;31779;49.124;19.190;2022-11-13T16:20:08;70.63;;;52.05;;
46040;SDS011;31779;49.124;19.190;2022-11-13T16:22:57;65.37;;;51.77;;
46040;SDS011;31779;49.124;19.190;2022-11-13T16:25:45;66.07;;;51.92;;
46040;SDS011;31779;49.124;19.190;2022-11-13T16:28:34;54.20;;;43.78;;
46040;SDS011;31779;49.124;19.190;2022-11-13T16:31:41;49.08;;;38.63;;
46040;SDS011;31779;49.124;19.190;2022-11-13T16:34:28;58.13;;;46.60;;
46040;SDS011;31779;49.124;19.190;2022-11-13T16:37:16;60.17;;;49.10;;
46040;SDS011;31779;49.124;19.190;2022-11-13T16:40:24;79.47;;;64.45;;
46040;SDS011;31779;49.124;19.190;2022-11-13T16:43:11;89.50;;;71.35;;
46040;SDS011;31779;49.124;19.190;2022-11-13T16:45:58;88.18;;;68.53;;
46040;SDS011;31779;49.124;19.190;2022-11-13T16:48:46;73.63;;;60.63;;
46040;SDS011;31779;49.124;19.190;2022-11-13T16:51:33;90.20;;;70.57;;
46040;SDS011;31779;49.124;19.190;2022-11-13T16:54:19;103.47;;;76.95;;
46040;SDS011;31779;49.124;19.190;2022-11-13T16:57:10;109.57;;;74.30;;
46040;SDS011;31779;49.124;19.190;2022-11-13T16:59:58;93.63;;;71.47;;
46040;SDS011;31779;49.124;19.190;2022-11-13T17:02:47;85.55;;;63.78;;
46040;SDS011;31779;49.124;19.190;2022-11-13T17:05:36;109.43;;;82.45;;
46040;SDS011;31779;49.124;19.190;2022-11-13T17:08:23;93.68;;;71.13;;
46040;SDS011;31779;49.124;19.190;2022-11-13T17:11:10;107.80;;;78.82;;
46040;SDS011;31779;49.124;19.190;2022-11-13T17:13:59;112.57;;;79.97;;
46040;SDS011;31779;49.124;19.190;2022-11-13T17:16:47;108.63;;;81.00;;
46040;SDS011;31779;49.124;19.190;2022-11-13T17:19:35;95.55;;;68.72;;
46040;SDS011;31779;49.124;19.190;2022-11-13T17:25:13;68.88;;;52.13;;
46040;SDS011;31779;49.124;19.190;2022-11-13T17:28:01;55.30;;;40.72;;
46040;SDS011;31779;49.124;19.190;2022-11-13T17:30:49;56.72;;;37.53;;
46040;SDS011;31779;49.124;19.190;2022-11-13T17:33:42;54.30;;;37.63;;
46040;SDS011;31779;49.124;19.190;2022-11-13T17:36:29;57.80;;;39.80;;
46040;SDS011;31779;49.124;19.190;2022-11-13T17:39:16;61.33;;;45.63;;
46040;SDS011;31779;49.124;19.190;2022-11-13T17:42:03;73.30;;;54.42;;
46040;SDS011;31779;49.124;19.190;2022-11-13T17:44:50;106.05;;;78.50;;
46040;SDS011;31779;49.124;19.190;2022-11-13T17:47:36;107.65;;;77.50;;
46040;SDS011;31779;49.124;19.190;2022-11-13T17:50:23;113.93;;;81.93;;
46040;SDS011;31779;49.124;19.190;2022-11-13T17:53:09;99.35;;;71.88;;
46040;SDS011;31779;49.124;19.190;2022-11-13T17:55:57;100.35;;;75.40;;
46040;SDS011;31779;49.124;19.190;2022-11-13T17:58:45;101.47;;;76.17;;
46040;SDS011;31779;49.124;19.190;2022-11-13T18:01:32;96.32;;;70.32;;